METAR Data
IDs: Format: Raw Decoded Include TAF

Data at: 0251 UTC 18 Jun 2019

PAMO 180202Z AUTO 33017G26KT 10SM CLR 21/08 A2968 RMK AO2 PK WND 33026/0202 SLP052 T02110078
PAMO 180102Z AUTO 33014G20KT 10SM CLR 21/07 A2969 RMK AO2 SLP057 T02110072
PAMO 180002Z AUTO 32017G21KT 10SM CLR 21/08 A2970 RMK AO2 SLP060 T02060078 10206 20161 58010
PAMO 172302Z AUTO 33015KT 10SM CLR 20/08 A2972 RMK AO2 SLP066 T02000078
PAMO 172202Z AUTO 33014G17KT 10SM CLR 19/08 A2973 RMK AO2 SLP069 T01940083
PAMO 172102Z AUTO 33016KT 10SM CLR 19/07 A2974 RMK AO2 SLP073 T01890072 56005
PAMO 172002Z AUTO 34016G21KT 10SM CLR 18/09 A2975 RMK AO2 SLP075 T01830089
PAMO 171902Z AUTO 33013KT 10SM CLR 18/09 A2975 RMK AO2 SLP076 T01830094
PAMO 171802Z AUTO 34016KT 10SM CLR 16/11 A2974 RMK AO2 SLP074 T01610111 10161 20111 58000
PAMO 171702Z AUTO 34012KT 10SM CLR 14/12 A2976 RMK AO2 SLP081 T01440117
PAMO 171602Z AUTO 36013KT 10SM CLR 14/09 A2976 RMK AO2 SLP081 T01440094
PAMO 171502Z AUTO 35010KT 10SM BKN090 13/10 A2976 RMK AO2 SLP081 T01280100 58002
PAMO 171402Z AUTO 36009KT 10SM FEW080 12/11 A2976 RMK AO2 SLP081 T01170106
PAMO 171302Z AUTO 36008KT 9SM CLR 12/11 A2977 RMK AO2 SLP082 T01170106
PAMO 171202Z AUTO 36007KT 10SM FEW070 SCT095 13/10 A2977 RMK AO2 SLP084 60000 70002 T01280100 10183 20122 58006
PAMO 171102Z AUTO 35009KT 10SM BKN090 13/10 A2977 RMK AO2 SLP084 T01280100
PAMO 171002Z AUTO 34009KT 10SM SCT070 OVC090 14/10 A2978 RMK AO2 SLP086 T01440100
PAMO 170902Z AUTO 35009KT 10SM SCT070 BKN085 14/10 A2979 RMK AO2 SLP090 60002 T01440100 51003
PAMO 170802Z AUTO 35009KT 10SM FEW120 16/11 A2979 RMK AO2 SLP089 T01610111 401610161
PAMO 170702Z AUTO 35011KT 10SM BKN070 OVC085 17/11 A2979 RMK AO2 RAE0626 SLP089 P0000 T01720111
PAMO 170602Z AUTO 35009G18KT 10SM -RA SCT060 OVC075 18/12 A2979 RMK AO2 RAB0554 SLP090 P0000 60002 T01780117 10194 20150 58004
PAMO 170502Z AUTO 36015KT 10SM BKN075 OVC095 18/11 A2978 RMK AO2 SLP087 T01830106
PAMO 170302Z AUTO 02014KT 10SM -RA FEW055 OVC075 16/11 A2981 RMK AO2 RAB0241 SLP097 P0000 60000 T01610111 56009
PAMO 170202Z AUTO 01012KT 10SM BKN075 OVC090 19/10 A2979 RMK AO2 RAB0116E0140 SLP090 P0000 T01940100
PAMO 170102Z AUTO 36017G20KT 10SM FEW050 SCT060 OVC080 19/09 A2980 RMK AO2 RAB0023E0038 SLP092 P0000 T01890089
PAMO 170002Z AUTO 35014G20KT 10SM BKN075 OVC090 19/09 A2981 RMK AO2 RAE2326 SLP095 P0000 60000 T01890089 10200 20156 56008
PAMO 162302Z AUTO 01011KT 10SM -RA BKN048 OVC080 18/09 A2982 RMK AO2 RAB2257 SLP099 P0000 T01830094
PAMO 162202Z AUTO 35013G17KT 10SM SCT049 20/08 A2982 RMK AO2 SLP101 T02000083
PAMO 162102Z AUTO 01011KT 10SM SCT047 OVC070 18/08 A2984 RMK AO2 SLP105 T01780078 50000
PAMO 162002Z AUTO 03009KT 10SM FEW049 BKN065 18/08 A2984 RMK AO2 SLP108 T01780078
PAMO 161902Z AUTO 01007KT 10SM FEW070 17/09 A2984 RMK AO2 SLP108 T01720089
PAMO 161802Z AUTO 03006KT 10SM BKN070 16/09 A2985 RMK AO2 SLP108 T01560094 10156 20100 51006
PAMO 161702Z AUTO 03007KT 10SM CLR 13/09 A2984 RMK AO2 SLP106 T01280089
PAMO 161602Z AUTO 07008KT 10SM CLR 12/08 A2983 RMK AO2 SLP105 T01170083
PAMO 161502Z AUTO 07010KT 10SM CLR 11/08 A2983 RMK AO2 SLP104 T01110078 53004